Ash Shaykh Uthman, Yemen
Current Conditions -  °F | °C
As of 10:00 AM on Thursday 18 Dec 2014 (Local Time) from OYAA Reporting Station
Clear Clear  
Wind Chill: 82°   Ceiling: Unl
Heat Index: 86°   Visibility: 6mi
Dew Point: 70°   Wind: 13mph
Humidity: 66%   Direction: 120°ESE
Pressure: 30.06"   Gusts: NA
Location:  12.87°N, 44.98°E
Report Text: OYAA 180700Z 12011KT 9999 CST018TCU 28/21 Q1018
Loading
Personal Weather Stations






























Interactive Weather Map New forecast layout! Learn more

10-Day Weather Forecast

Advertisements
Track Severe Weather on mobile